createdAt,value
2017-10-15T00:01:16.852Z,17.20
2017-10-15T00:03:45.300Z,18.30
2017-10-15T00:06:14.165Z,14.60
2017-10-15T00:08:43.072Z,15.63
2017-10-15T00:11:11.211Z,16.83
2017-10-15T00:13:39.323Z,20.73
2017-10-15T00:16:07.396Z,14.73
2017-10-15T00:18:35.474Z,15.77
2017-10-15T00:21:03.630Z,19.80
2017-10-15T00:23:31.737Z,17.40
2017-10-15T00:25:59.807Z,16.03
2017-10-15T00:28:28.043Z,16.70
2017-10-15T00:30:56.134Z,17.63
2017-10-15T00:33:24.993Z,14.87
2017-10-15T00:35:53.117Z,18.23
2017-10-15T00:38:22.703Z,18.57
2017-10-15T00:40:50.802Z,16.23
2017-10-15T00:43:18.915Z,15.43
2017-10-15T00:45:47.062Z,16.33
2017-10-15T00:48:15.163Z,15.37
2017-10-15T00:50:43.295Z,20.57
2017-10-15T00:53:11.392Z,16.37
2017-10-15T00:55:40.292Z,17.83
2017-10-15T00:58:09.226Z,15.83
2017-10-15T01:00:37.290Z,15.33
2017-10-15T01:03:05.444Z,15.40
2017-10-15T01:05:33.532Z,18.23
2017-10-15T01:08:01.608Z,16.40
2017-10-15T01:10:29.721Z,16.63
2017-10-15T01:12:57.818Z,17.17
2017-10-15T01:15:26.688Z,13.47
2017-10-15T01:17:54.780Z,19.27
2017-10-15T01:20:22.860Z,13.03
2017-10-15T01:22:50.983Z,22.37
2017-10-15T01:25:19.071Z,14.77
2017-10-15T01:27:47.909Z,13.63
2017-10-15T01:30:16.041Z,15.40
2017-10-15T01:32:44.148Z,13.40
2017-10-15T01:35:12.246Z,15.93
2017-10-15T01:37:40.334Z,13.37
2017-10-15T01:40:09.199Z,13.30
2017-10-15T01:42:37.303Z,13.00
2017-10-15T01:45:06.933Z,15.20
2017-10-15T01:47:35.038Z,14.77
2017-10-15T01:50:03.145Z,13.63
2017-10-15T01:52:32.017Z,12.23
2017-10-15T01:55:00.095Z,11.60
2017-10-15T01:57:28.205Z,12.00
2017-10-15T01:59:56.272Z,18.00
2017-10-15T02:02:24.396Z,10.50
2017-10-15T02:04:52.514Z,13.17
2017-10-15T02:07:20.636Z,13.17
2017-10-15T02:09:48.715Z,86.73
2017-10-15T02:12:16.820Z,22.23
2017-10-15T02:14:44.899Z,10.47
2017-10-15T02:17:13.191Z,11.50
2017-10-15T02:19:42.099Z,13.97
2017-10-15T02:22:10.211Z,14.73
2017-10-15T02:24:38.466Z,11.17
2017-10-15T02:27:06.579Z,11.37
2017-10-15T02:29:34.691Z,13.03
2017-10-15T02:32:04.272Z,12.60
2017-10-15T02:34:32.362Z,12.40
2017-10-15T02:37:01.261Z,13.97
2017-10-15T02:39:29.406Z,11.90
2017-10-15T02:41:58.626Z,13.90
2017-10-15T02:44:27.503Z,12.43
2017-10-15T02:46:55.610Z,16.33
2017-10-15T02:49:23.725Z,12.13
2017-10-15T02:51:51.812Z,14.80
2017-10-15T02:54:19.938Z,10.33
2017-10-15T02:56:48.062Z,12.97
2017-10-15T02:59:16.153Z,17.43
2017-10-15T03:01:44.278Z,11.53
2017-10-15T03:04:12.427Z,13.60
2017-10-15T03:06:40.518Z,12.27
2017-10-15T03:09:09.428Z,17.83
2017-10-15T03:11:37.516Z,13.53
2017-10-15T03:14:05.642Z,12.67
2017-10-15T03:16:33.747Z,13.53
2017-10-15T03:19:01.856Z,13.27
2017-10-15T03:21:30.736Z,13.00
2017-10-15T03:24:00.315Z,16.03
2017-10-15T03:26:28.419Z,15.83
2017-10-15T03:28:56.505Z,16.27
2017-10-15T03:31:25.350Z,16.10
2017-10-15T03:33:53.566Z,15.93
2017-10-15T03:36:22.440Z,15.53
2017-10-15T03:38:50.564Z,17.23
2017-10-15T03:41:18.760Z,19.90
2017-10-15T03:43:46.865Z,18.17
2017-10-15T03:46:15.767Z,17.90
2017-10-15T03:48:43.897Z,17.17
2017-10-15T03:51:12.014Z,20.20
2017-10-15T03:53:40.864Z,26.43
2017-10-15T03:56:09.061Z,19.43
2017-10-15T03:58:37.139Z,24.10
2017-10-15T04:01:06.036Z,22.10
2017-10-15T04:03:34.199Z,21.60
2017-10-15T04:06:03.094Z,23.83
2017-10-15T04:08:31.302Z,23.33
2017-10-15T04:11:00.056Z,24.07
2017-10-15T04:13:28.978Z,24.73
2017-10-15T04:15:57.091Z,27.43
2017-10-15T04:18:25.164Z,26.73
2017-10-15T04:20:54.049Z,27.97
2017-10-15T04:23:22.124Z,33.03
2017-10-15T04:25:50.231Z,32.00
2017-10-15T04:28:18.384Z,31.73
2017-10-15T04:30:46.469Z,34.00
2017-10-15T04:33:14.575Z,33.70
2017-10-15T04:35:42.722Z,30.30
2017-10-15T04:38:11.636Z,31.97
2017-10-15T04:40:39.746Z,33.10
2017-10-15T04:43:07.868Z,34.67
2017-10-15T04:45:35.969Z,31.97
2017-10-15T04:48:04.045Z,35.00
2017-10-15T04:50:32.159Z,29.23
2017-10-15T04:53:00.234Z,35.50
2017-10-15T04:55:28.748Z,35.23
2017-10-15T04:57:56.847Z,33.07
2017-10-15T05:00:24.946Z,34.20
2017-10-15T05:02:53.086Z,45.73
2017-10-15T05:05:21.202Z,35.53
2017-10-15T05:07:49.432Z,32.70
2017-10-15T05:10:17.515Z,38.60
2017-10-15T05:12:45.638Z,39.77
2017-10-15T05:15:13.754Z,43.57
2017-10-15T05:17:41.854Z,38.13
2017-10-15T05:20:10.729Z,44.23
2017-10-15T05:22:38.862Z,37.43
2017-10-15T05:25:06.970Z,36.20
2017-10-15T05:27:35.068Z,45.27
2017-10-15T05:30:04.712Z,37.90
2017-10-15T05:32:32.822Z,38.33
2017-10-15T05:35:00.939Z,43.77
2017-10-15T05:37:29.813Z,39.00
2017-10-15T05:39:57.887Z,43.70
2017-10-15T05:42:26.015Z,43.00
2017-10-15T05:44:54.108Z,43.37
2017-10-15T05:47:22.205Z,46.37
2017-10-15T05:49:50.341Z,40.80
2017-10-15T05:52:18.413Z,41.50
2017-10-15T05:54:47.477Z,49.20
2017-10-15T05:57:15.562Z,45.97
2017-10-15T05:59:43.657Z,44.53
2017-10-15T06:02:11.790Z,47.00
2017-10-15T06:04:39.898Z,42.77
2017-10-15T06:07:08.001Z,46.93
2017-10-15T06:09:36.851Z,39.80
2017-10-15T06:12:05.733Z,44.27
2017-10-15T06:14:33.828Z,41.03
2017-10-15T06:17:01.926Z,41.20
2017-10-15T06:19:30.044Z,45.43
2017-10-15T06:21:58.119Z,44.00
2017-10-15T06:24:26.198Z,39.50
2017-10-15T06:26:55.086Z,41.13
2017-10-15T06:29:23.954Z,43.90
2017-10-15T06:31:52.054Z,48.53
2017-10-15T06:34:20.916Z,39.17
2017-10-15T06:36:48.997Z,37.90
2017-10-15T06:39:17.132Z,43.57
2017-10-15T06:41:45.970Z,47.23
2017-10-15T06:44:14.066Z,40.30
2017-10-15T06:46:42.931Z,46.60
2017-10-15T06:49:11.020Z,43.13
2017-10-15T06:51:39.133Z,49.63
2017-10-15T06:54:07.225Z,49.13
2017-10-15T06:56:36.185Z,49.60
2017-10-15T06:59:04.321Z,48.40
2017-10-15T07:01:32.469Z,50.20
2017-10-15T07:04:00.611Z,56.37
2017-10-15T07:06:28.718Z,46.67
2017-10-15T07:08:56.826Z,51.53
2017-10-15T07:11:24.897Z,53.50
2017-10-15T07:13:52.985Z,59.80
2017-10-15T07:16:21.868Z,54.93
2017-10-15T07:18:49.966Z,55.33
2017-10-15T07:21:18.098Z,63.57
2017-10-15T07:23:46.936Z,55.87
2017-10-15T07:26:15.037Z,55.23
2017-10-15T07:28:43.138Z,58.77
2017-10-15T07:31:11.227Z,56.53
2017-10-15T07:33:39.327Z,53.93
2017-10-15T07:36:07.433Z,58.13
2017-10-15T07:38:35.521Z,57.13
2017-10-15T07:41:04.426Z,60.23
2017-10-15T07:43:32.490Z,64.73
2017-10-15T07:46:00.597Z,61.80
2017-10-15T07:48:28.694Z,62.13
2017-10-15T07:50:57.563Z,57.10
2017-10-15T07:53:25.663Z,61.87
2017-10-15T07:55:54.534Z,61.47
2017-10-15T07:58:23.701Z,51.90
2017-10-15T08:00:51.813Z,60.73
2017-10-15T08:03:19.930Z,64.67
2017-10-15T08:05:49.256Z,58.03
2017-10-15T08:08:17.434Z,54.20
2017-10-15T08:10:45.538Z,52.53
2017-10-15T08:13:14.431Z,54.93
2017-10-15T08:15:42.542Z,59.40
2017-10-15T08:18:10.648Z,56.17
2017-10-15T08:20:38.768Z,49.27
2017-10-15T08:23:06.859Z,43.47
2017-10-15T08:25:34.947Z,40.20
2017-10-15T08:28:03.869Z,47.03
2017-10-15T08:30:32.081Z,47.67
2017-10-15T08:33:00.202Z,44.20
2017-10-15T08:35:28.285Z,46.63
2017-10-15T08:37:56.388Z,43.80
2017-10-15T08:40:24.482Z,46.97
2017-10-15T08:42:52.563Z,48.23
2017-10-15T08:45:20.663Z,41.77
2017-10-15T08:47:49.546Z,43.87
2017-10-15T08:50:17.627Z,47.37
2017-10-15T08:52:45.740Z,46.80
2017-10-15T08:55:13.858Z,44.40
2017-10-15T08:57:42.752Z,38.10
2017-10-15T09:00:10.856Z,44.60
2017-10-15T09:02:39.714Z,45.80
2017-10-15T09:05:07.837Z,51.03
2017-10-15T09:07:35.926Z,54.63
2017-10-15T09:10:04.817Z,52.37
2017-10-15T09:12:32.890Z,51.47
2017-10-15T09:15:01.744Z,42.00
2017-10-15T09:17:29.870Z,40.27
2017-10-15T09:19:57.962Z,44.47
2017-10-15T09:22:26.858Z,37.00
2017-10-15T09:24:54.973Z,43.47
2017-10-15T09:27:23.041Z,45.07
2017-10-15T09:29:51.165Z,44.20
2017-10-15T09:32:20.067Z,45.93
2017-10-15T09:34:48.940Z,40.40
2017-10-15T09:37:17.773Z,45.33
2017-10-15T09:39:46.738Z,40.10
2017-10-15T09:42:14.831Z,37.10
2017-10-15T09:44:42.931Z,45.67
2017-10-15T09:47:11.045Z,41.60
2017-10-15T09:49:39.878Z,56.20
2017-10-15T09:52:08.031Z,47.13
2017-10-15T09:54:36.142Z,41.53
2017-10-15T09:57:04.247Z,39.73
2017-10-15T09:59:32.365Z,34.57
2017-10-15T10:02:00.447Z,36.57
2017-10-15T10:04:28.569Z,31.77
2017-10-15T10:06:56.657Z,33.53
2017-10-15T10:09:24.748Z,30.20
2017-10-15T10:11:53.597Z,31.77
2017-10-15T10:14:21.725Z,29.60
2017-10-15T10:16:49.828Z,28.80
2017-10-15T10:19:17.932Z,35.20
2017-10-15T10:21:46.056Z,34.17
2017-10-15T10:24:14.176Z,36.03
2017-10-15T10:26:42.297Z,34.23
2017-10-15T10:29:10.413Z,29.23
2017-10-15T10:31:39.280Z,30.10
2017-10-15T10:34:07.351Z,25.37
2017-10-15T10:36:35.475Z,30.77
2017-10-15T10:39:03.576Z,28.83
2017-10-15T10:41:31.707Z,28.83
2017-10-15T10:43:59.812Z,31.07
2017-10-15T10:46:27.919Z,33.03
2017-10-15T10:48:56.015Z,34.83
2017-10-15T10:51:24.872Z,30.47
2017-10-15T10:53:52.970Z,32.17
2017-10-15T10:56:21.053Z,31.20
2017-10-15T10:58:50.571Z,30.93
2017-10-15T11:01:18.659Z,30.97
2017-10-15T11:03:46.759Z,29.47
2017-10-15T11:06:16.166Z,31.53
2017-10-15T11:08:44.241Z,30.90
2017-10-15T11:11:12.357Z,32.40
2017-10-15T11:13:40.443Z,28.83
2017-10-15T11:16:08.552Z,27.23
2017-10-15T11:18:36.650Z,23.80
2017-10-15T11:21:04.773Z,27.53
2017-10-15T11:23:33.660Z,23.67
2017-10-15T11:26:01.732Z,22.57
2017-10-15T11:28:29.863Z,23.40
2017-10-15T11:30:58.090Z,25.53
2017-10-15T11:33:26.278Z,22.23
2017-10-15T11:35:54.398Z,24.13
2017-10-15T11:38:22.814Z,26.93
2017-10-15T11:40:50.910Z,23.93
2017-10-15T11:43:19.094Z,21.93
2017-10-15T11:45:47.207Z,22.43
2017-10-15T11:48:15.288Z,23.23
2017-10-15T11:50:43.427Z,18.93
2017-10-15T11:53:11.517Z,20.33
2017-10-15T11:55:39.638Z,20.00
2017-10-15T11:58:07.770Z,20.13
2017-10-15T12:00:36.640Z,19.27
2017-10-15T12:03:04.730Z,18.57
2017-10-15T12:05:32.820Z,17.53
2017-10-15T12:08:01.790Z,17.80
2017-10-15T12:10:30.639Z,16.53
2017-10-15T12:12:59.494Z,15.13
2017-10-15T12:15:27.592Z,15.43
2017-10-15T12:17:55.693Z,13.33
2017-10-15T12:20:23.782Z,14.83
2017-10-15T12:22:51.854Z,14.40
2017-10-15T12:25:19.927Z,14.40
2017-10-15T12:27:48.026Z,14.17
2017-10-15T12:30:16.124Z,13.20
2017-10-15T12:32:44.243Z,12.10
2017-10-15T12:35:12.322Z,12.63
2017-10-15T12:37:40.415Z,11.07
2017-10-15T12:40:07.692Z,10.52
2017-10-15T12:45:01.005Z,12.50
2017-10-15T12:47:28.936Z,10.70
2017-10-15T12:49:56.867Z,12.37
2017-10-15T12:52:24.834Z,12.63
2017-10-15T12:54:52.787Z,11.70
2017-10-15T12:57:20.747Z,12.67
2017-10-15T12:59:48.691Z,13.80
2017-10-15T13:02:16.647Z,13.57
2017-10-15T13:04:44.613Z,15.70
2017-10-15T13:07:12.551Z,15.13
2017-10-15T13:09:40.499Z,16.03
2017-10-15T13:12:08.455Z,16.80
2017-10-15T13:14:36.392Z,16.47
2017-10-15T13:17:04.355Z,16.43
2017-10-15T13:19:32.321Z,18.23
2017-10-15T13:22:00.311Z,18.37
2017-10-15T13:24:28.272Z,17.30
2017-10-15T13:26:56.246Z,18.43
2017-10-15T13:29:24.209Z,18.20
2017-10-15T13:31:52.181Z,18.20
2017-10-15T13:34:20.148Z,20.63
2017-10-15T13:36:48.082Z,23.30
2017-10-15T13:39:16.048Z,22.40
2017-10-15T13:41:43.997Z,19.53
2017-10-15T13:44:11.953Z,20.17
2017-10-15T13:46:39.971Z,18.17
2017-10-15T13:49:07.914Z,21.50
2017-10-15T13:51:35.897Z,19.70
2017-10-15T13:54:03.912Z,20.57
2017-10-15T13:56:32.036Z,19.77
2017-10-15T13:59:00.015Z,17.97
2017-10-15T14:01:27.971Z,17.67
2017-10-15T14:03:55.945Z,16.23
2017-10-15T14:06:23.917Z,14.80
2017-10-15T14:08:51.888Z,14.10
2017-10-15T14:11:19.860Z,13.67
2017-10-15T14:13:47.852Z,12.53
2017-10-15T14:16:15.814Z,13.97
2017-10-15T14:18:43.747Z,14.50
2017-10-15T14:21:11.702Z,14.60
2017-10-15T14:23:39.665Z,15.07
2017-10-15T14:26:07.627Z,14.30
2017-10-15T14:28:35.593Z,13.93
2017-10-15T14:31:03.519Z,13.53
2017-10-15T14:33:31.496Z,14.33
2017-10-15T14:35:59.459Z,15.43
2017-10-15T14:38:27.453Z,15.13
2017-10-15T14:40:55.399Z,16.20
2017-10-15T14:43:23.363Z,14.93
2017-10-15T14:45:51.331Z,15.13
2017-10-15T14:48:19.307Z,15.87
2017-10-15T14:50:47.333Z,17.73
2017-10-15T14:53:15.321Z,18.60
2017-10-15T14:55:43.369Z,16.47
2017-10-15T14:58:11.302Z,18.83
2017-10-15T15:00:39.291Z,19.03
2017-10-15T15:03:07.258Z,21.37
2017-10-15T15:05:35.189Z,18.73
2017-10-15T15:08:03.180Z,20.07
2017-10-15T15:10:31.165Z,20.17
2017-10-15T15:12:59.118Z,22.47
2017-10-15T15:15:27.105Z,23.70
2017-10-15T15:17:55.077Z,23.37
2017-10-15T15:20:23.075Z,25.37
2017-10-15T15:22:51.194Z,24.50
2017-10-15T15:25:19.206Z,25.50
2017-10-15T15:27:47.924Z,22.77
2017-10-15T15:30:16.695Z,26.10
2017-10-15T15:32:44.691Z,22.70
2017-10-15T15:35:13.516Z,24.33
2017-10-15T15:37:41.918Z,24.80
2017-10-15T15:40:09.904Z,24.23
2017-10-15T15:42:38.207Z,24.33
2017-10-15T15:45:07.209Z,24.13
2017-10-15T15:47:35.309Z,24.13
2017-10-15T15:50:03.304Z,24.07
2017-10-15T15:52:31.283Z,23.97
2017-10-15T15:54:59.226Z,26.93
2017-10-15T15:57:27.195Z,23.90
2017-10-15T15:59:55.262Z,27.70
2017-10-15T16:02:23.243Z,24.30
2017-10-15T16:04:51.290Z,27.23
2017-10-15T16:07:19.259Z,26.80
2017-10-15T16:09:47.235Z,26.77
2017-10-15T16:12:15.192Z,28.40
2017-10-15T16:14:43.944Z,28.20
2017-10-15T16:17:12.743Z,28.20
2017-10-15T16:19:41.112Z,27.30
2017-10-15T16:22:09.073Z,29.00
2017-10-15T16:24:38.110Z,30.13
2017-10-15T16:27:06.066Z,31.77
2017-10-15T16:29:34.769Z,29.33
2017-10-15T16:32:02.725Z,29.07
2017-10-15T16:34:31.223Z,30.23
2017-10-15T16:36:59.508Z,30.53
2017-10-15T16:39:27.625Z,29.90
2017-10-15T16:41:55.614Z,31.33
2017-10-15T16:44:23.645Z,31.70
2017-10-15T16:46:51.627Z,31.77
2017-10-15T16:49:19.572Z,33.43
2017-10-15T16:51:47.527Z,32.50
2017-10-15T16:54:15.523Z,35.60
2017-10-15T16:56:43.483Z,32.57
2017-10-15T16:59:11.475Z,34.77
2017-10-15T17:01:39.534Z,36.63
2017-10-15T17:04:07.523Z,33.73
2017-10-15T17:06:35.999Z,35.03
2017-10-15T17:09:04.362Z,34.37
2017-10-15T17:11:32.355Z,34.60
2017-10-15T17:14:00.325Z,34.60
2017-10-15T17:16:28.294Z,35.83
2017-10-15T17:18:56.234Z,35.03
2017-10-15T17:21:24.564Z,33.30
2017-10-15T17:23:52.549Z,34.57
2017-10-15T17:26:20.494Z,37.87
2017-10-15T17:28:48.523Z,35.40
2017-10-15T17:31:16.450Z,36.97
2017-10-15T17:33:44.397Z,37.87
2017-10-15T17:36:12.356Z,35.40
2017-10-15T17:38:40.341Z,36.40
2017-10-15T17:41:08.312Z,37.73
2017-10-15T17:43:36.282Z,37.50
2017-10-15T17:46:04.241Z,35.27
2017-10-15T17:48:32.198Z,37.00
2017-10-15T17:51:00.148Z,40.03
2017-10-15T17:53:28.108Z,37.07
2017-10-15T17:55:56.045Z,38.93
2017-10-15T17:58:23.999Z,34.53
2017-10-15T18:00:52.017Z,36.70
2017-10-15T18:03:19.987Z,36.30
2017-10-15T18:05:47.939Z,36.80
2017-10-15T18:08:15.888Z,37.97
2017-10-15T18:10:43.860Z,36.80
2017-10-15T18:13:11.832Z,36.07
2017-10-15T18:15:39.815Z,35.77
2017-10-15T18:18:07.769Z,34.07
2017-10-15T18:20:35.708Z,34.63
2017-10-15T18:23:03.727Z,37.33
2017-10-15T18:25:31.670Z,38.00
2017-10-15T18:28:00.214Z,36.70
2017-10-15T18:30:28.605Z,37.93
2017-10-15T18:32:56.543Z,37.27
2017-10-15T18:35:24.490Z,37.53
2017-10-15T18:37:52.443Z,37.73
2017-10-15T18:40:20.453Z,40.40
2017-10-15T18:42:48.462Z,38.50
2017-10-15T18:45:17.204Z,36.63
2017-10-15T18:47:45.177Z,38.93
2017-10-15T18:50:13.285Z,37.20
2017-10-15T18:52:41.253Z,37.70
2017-10-15T18:55:09.207Z,38.97
2017-10-15T18:57:37.221Z,38.47
2017-10-15T19:00:05.188Z,40.67
2017-10-15T19:02:33.157Z,40.13
2017-10-15T19:05:01.190Z,36.57
2017-10-15T19:07:29.155Z,37.57
2017-10-15T19:09:57.873Z,36.83
2017-10-15T19:12:25.910Z,38.77
2017-10-15T19:14:53.896Z,37.43
2017-10-15T19:17:21.899Z,37.67
2017-10-15T19:19:49.950Z,36.60
2017-10-15T19:22:17.922Z,37.93
2017-10-15T19:24:45.997Z,35.93
2017-10-15T19:27:14.095Z,38.10
2017-10-15T19:29:42.098Z,36.10
2017-10-15T19:32:10.090Z,38.97
2017-10-15T19:34:38.052Z,36.83
2017-10-15T19:37:06.417Z,37.37
2017-10-15T19:39:34.399Z,35.40
2017-10-15T19:42:02.354Z,35.47
2017-10-15T19:44:30.362Z,33.20
2017-10-15T19:46:58.403Z,34.20
2017-10-15T19:49:27.051Z,35.80
2017-10-15T19:51:55.048Z,34.90
2017-10-15T19:54:23.027Z,34.27
2017-10-15T19:56:51.091Z,33.80
2017-10-15T19:59:19.180Z,31.00
2017-10-15T20:01:47.248Z,30.90
2017-10-15T20:04:15.451Z,28.60
2017-10-15T20:06:43.680Z,26.93
2017-10-15T20:09:11.689Z,28.97
2017-10-15T20:11:39.817Z,27.50
2017-10-15T20:14:07.911Z,29.07
2017-10-15T20:16:35.955Z,34.27
2017-10-15T20:19:04.069Z,29.10
2017-10-15T20:21:32.054Z,25.67
2017-10-15T20:24:00.089Z,27.30
2017-10-15T20:26:28.122Z,28.43
2017-10-15T20:28:56.838Z,25.53
2017-10-15T20:31:24.815Z,26.97
2017-10-15T20:33:52.833Z,25.60
2017-10-15T20:36:20.815Z,27.10
2017-10-15T20:38:48.769Z,25.63
2017-10-15T20:41:16.745Z,24.93
2017-10-15T20:43:44.703Z,23.90
2017-10-15T20:46:12.729Z,23.80
2017-10-15T20:48:40.699Z,26.93
2017-10-15T20:51:08.664Z,21.20
2017-10-15T20:53:36.634Z,21.77
2017-10-15T20:56:04.575Z,18.63
2017-10-15T20:58:32.572Z,17.83
2017-10-15T21:01:00.527Z,18.70
2017-10-15T21:03:28.506Z,16.87
2017-10-15T21:05:56.847Z,18.13
2017-10-15T21:08:24.813Z,18.40
2017-10-15T21:10:52.777Z,16.70
2017-10-15T21:13:20.730Z,16.30
2017-10-15T21:15:48.731Z,16.50
2017-10-15T21:18:16.702Z,15.83
2017-10-15T21:20:44.696Z,16.97
2017-10-15T21:23:12.661Z,18.53
2017-10-15T21:25:40.653Z,14.60
2017-10-15T21:28:08.602Z,15.57
2017-10-15T21:30:36.566Z,16.33
2017-10-15T21:33:05.356Z,15.03
2017-10-15T21:35:33.330Z,14.87
2017-10-15T21:38:01.305Z,13.60
2017-10-15T21:40:29.299Z,14.30
2017-10-15T21:42:57.262Z,14.43
2017-10-15T21:45:25.237Z,12.50
2017-10-15T21:47:53.672Z,14.13
2017-10-15T21:50:21.652Z,13.53
2017-10-15T21:52:49.608Z,13.20
2017-10-15T21:55:17.582Z,13.17
2017-10-15T21:57:45.548Z,11.80
2017-10-15T22:00:13.521Z,13.30
2017-10-15T22:02:41.467Z,12.57
2017-10-15T22:05:09.460Z,13.90
2017-10-15T22:07:37.407Z,12.10
2017-10-15T22:10:05.375Z,13.93
2017-10-15T22:12:33.363Z,15.87
2017-10-15T22:15:01.334Z,14.43
2017-10-15T22:17:29.315Z,14.10
2017-10-15T22:19:57.310Z,13.20
2017-10-15T22:22:25.260Z,14.90
2017-10-15T22:24:53.226Z,15.23
2017-10-15T22:27:21.204Z,14.03
2017-10-15T22:29:49.201Z,14.03
2017-10-15T22:32:17.170Z,13.90
2017-10-15T22:34:45.176Z,14.93
2017-10-15T22:37:13.139Z,18.57
2017-10-15T22:39:41.141Z,14.93
2017-10-15T22:42:09.194Z,14.57
2017-10-15T22:44:37.193Z,14.17
2017-10-15T22:47:05.187Z,13.90
2017-10-15T22:49:33.202Z,16.37
2017-10-15T22:52:01.242Z,14.83
2017-10-15T22:54:29.198Z,14.23
2017-10-15T22:56:57.204Z,15.00
2017-10-15T22:59:25.211Z,17.63
2017-10-15T23:01:53.221Z,14.40
2017-10-15T23:04:21.621Z,15.00
2017-10-15T23:06:49.585Z,14.67
2017-10-15T23:09:17.564Z,14.70
2017-10-15T23:11:45.570Z,13.97
2017-10-15T23:14:13.542Z,14.53
2017-10-15T23:16:41.500Z,15.47
2017-10-15T23:19:09.481Z,17.60
2017-10-15T23:21:37.480Z,14.53
2017-10-15T23:24:05.440Z,15.50
2017-10-15T23:26:33.409Z,13.90
2017-10-15T23:29:01.376Z,15.33
2017-10-15T23:31:29.354Z,13.97
2017-10-15T23:33:57.361Z,14.07
2017-10-15T23:36:25.357Z,13.60
2017-10-15T23:38:53.373Z,13.97
2017-10-15T23:41:21.384Z,14.13
2017-10-15T23:43:49.384Z,13.23
2017-10-15T23:46:17.335Z,13.77
2017-10-15T23:48:45.359Z,15.53
2017-10-15T23:51:13.307Z,15.73
2017-10-15T23:53:41.523Z,13.53
2017-10-15T23:56:09.479Z,13.23
2017-10-15T23:58:37.465Z,13.33
